Time;durP1;ratioP1;P1;durP2;ratioP2;P2;SDS_P1;SDS_P2;PMS_P1;PMS_P2;Temp;Humidity;BMP_temperature;BMP_pressure;BME280_temperature;BME280_humidity;BME280_pressure;Samples;Min_cycle;Max_cycle;Signal;HPM_P1;HPM_P2
2023/01/15 00:00:35;;;;;;;4.32;0.90;;;;;;;6.60;82.83;99811.78;5062229;28;20096;-76
2023/01/15 00:03:00;;;;;;;6.75;1.35;;;;;;;6.61;82.67;99810.91;5071514;28;20024;-76
2023/01/15 00:05:26;;;;;;;5.43;0.90;;;;;;;6.61;81.42;99818.66;5071169;28;20036;-77
2023/01/15 00:07:52;;;;;;;7.50;1.10;;;;;;;6.63;81.65;99810.88;5071483;28;20057;-76
2023/01/15 00:10:18;;;;;;;5.13;0.88;;;;;;;6.61;79.80;99815.22;5051030;28;20024;-76
2023/01/15 00:12:43;;;;;;;6.13;0.80;;;;;;;6.59;79.49;99815.25;5071493;28;20027;-76
2023/01/15 00:15:09;;;;;;;6.72;1.20;;;;;;;6.59;79.22;99814.41;5056923;28;20472;-76
2023/01/15 00:17:34;;;;;;;6.20;0.80;;;;;;;6.60;78.73;99816.13;5051475;28;20028;-76
2023/01/15 00:19:59;;;;;;;3.83;0.70;;;;;;;6.59;78.68;99814.41;5062822;28;20452;-76
2023/01/15 00:22:24;;;;;;;4.70;0.90;;;;;;;6.59;78.61;99812.66;5071423;28;20020;-76
2023/01/15 00:27:38;;;;;;;4.25;0.70;;;;;;;6.56;79.41;99817.06;5033451;28;20036;-76
2023/01/15 00:30:04;;;;;;;3.95;0.88;;;;;;;6.54;79.65;99811.97;5061537;28;20345;-76
2023/01/15 00:32:30;;;;;;;4.28;0.75;;;;;;;6.54;79.92;99793.88;5067938;28;20361;-76
2023/01/15 00:34:57;;;;;;;4.60;0.82;;;;;;;6.52;80.67;99811.97;5063605;28;20512;-76
2023/01/15 00:37:23;;;;;;;4.00;0.70;;;;;;;6.50;81.34;99811.16;5070349;28;20108;-76
2023/01/15 00:39:48;;;;;;;4.13;0.90;;;;;;;6.49;81.75;99808.63;5042566;28;20119;-76
2023/01/15 00:42:14;;;;;;;5.70;1.00;;;;;;;6.47;82.08;99800.06;5070871;28;20032;-76
2023/01/15 00:44:40;;;;;;;4.93;0.88;;;;;;;6.44;82.39;99801.00;5053047;28;20021;-76
2023/01/15 00:47:07;;;;;;;3.20;0.90;;;;;;;6.46;82.40;99803.53;5071225;28;20024;-76
2023/01/15 00:49:33;;;;;;;5.78;0.90;;;;;;;6.43;83.15;99819.13;5069400;28;20494;-76
2023/01/15 00:51:58;;;;;;;3.67;1.08;;;;;;;6.43;82.44;99826.88;5069349;28;20021;-77
2023/01/15 00:54:23;;;;;;;3.88;1.20;;;;;;;6.41;82.74;99832.09;5054684;28;20395;-76
2023/01/15 00:56:48;;;;;;;5.88;1.40;;;;;;;6.41;83.01;99829.50;5072887;28;20036;-76
2023/01/15 00:59:14;;;;;;;7.30;1.27;;;;;;;6.38;82.80;99825.28;5066807;28;20016;-76
2023/01/15 01:01:39;;;;;;;3.42;1.25;;;;;;;6.40;82.11;99835.56;5065385;28;20020;-76
2023/01/15 01:04:05;;;;;;;6.00;1.00;;;;;;;6.37;81.80;99830.47;5062168;28;20024;-76
2023/01/15 01:06:30;;;;;;;4.80;1.00;;;;;;;6.36;81.83;99828.75;5047650;28;20113;-76
2023/01/15 01:08:56;;;;;;;5.97;1.02;;;;;;;6.36;81.34;99836.50;5061884;28;20021;-76
2023/01/15 01:11:25;;;;;;;4.13;0.80;;;;;;;6.33;80.92;99828.81;5065236;28;20048;-76
2023/01/15 01:13:51;;;;;;;2.22;0.90;;;;;;;6.31;80.40;99830.63;5063374;28;20032;-76
2023/01/15 01:16:23;;;;;;;4.82;1.15;;;;;;;6.30;80.92;99826.34;5054410;28;20017;-76
2023/01/15 01:18:49;;;;;;;5.63;1.10;;;;;;;6.26;80.41;99816.97;5068242;28;20134;-76
2023/01/15 01:21:14;;;;;;;3.05;0.80;;;;;;;6.26;80.95;99829.88;5054770;28;20058;-76
2023/01/15 01:23:39;;;;;;;5.70;1.10;;;;;;;6.26;80.52;99832.47;5052804;28;20093;-76
2023/01/15 01:26:04;;;;;;;4.40;0.90;;;;;;;6.22;80.53;99819.63;5066396;28;20029;-76
2023/01/15 01:28:30;;;;;;;5.95;0.90;;;;;;;6.20;80.44;99825.72;5054349;28;20025;-76
2023/01/15 01:30:55;;;;;;;5.05;0.88;;;;;;;6.21;80.52;99836.00;5058475;28;20062;-76
2023/01/15 01:33:20;;;;;;;2.88;0.80;;;;;;;6.15;80.71;99825.81;5065689;28;20039;-76
2023/01/15 01:35:49;;;;;;;7.00;1.02;;;;;;;6.16;80.33;99824.91;5061031;28;20025;-76
2023/01/15 01:38:15;;;;;;;4.78;0.93;;;;;;;6.15;80.05;99824.97;5067910;28;20055;-76
2023/01/15 01:40:40;;;;;;;2.05;0.77;;;;;;;6.14;80.60;99818.97;5060706;28;20464;-77
2023/01/15 01:43:18;;;;;;;5.00;0.77;;;;;;;6.11;80.91;99834.53;5063251;28;20124;-76
2023/01/15 01:45:43;;;;;;;2.85;0.70;;;;;;;6.10;80.55;99829.38;5060439;28;20180;-75
2023/01/15 01:48:09;;;;;;;4.68;0.95;;;;;;;6.08;80.46;99834.59;5063165;28;20418;-76
2023/01/15 01:50:38;;;;;;;5.53;0.80;;;;;;;6.10;79.96;99830.25;5062825;28;20063;-76
2023/01/15 01:53:09;;;;;;;5.22;1.15;;;;;;;6.11;80.16;99833.66;5064638;28;20036;-76
2023/01/15 01:55:36;;;;;;;6.35;1.00;;;;;;;6.08;80.41;99829.44;5051488;28;20062;-76
2023/01/15 01:58:03;;;;;;;7.97;1.25;;;;;;;6.05;80.14;99822.63;5060952;28;20111;-76
2023/01/15 02:00:31;;;;;;;6.75;0.90;;;;;;;6.07;79.91;99832.91;5061559;28;20025;-76
2023/01/15 02:02:58;;;;;;;6.75;1.00;;;;;;;6.04;79.96;99828.66;5063216;28;20032;-76
2023/01/15 02:05:36;;;;;;;5.82;0.90;;;;;;;6.05;79.99;99840.69;5064329;28;20044;-76
2023/01/15 02:08:02;;;;;;;5.15;0.95;;;;;;;6.07;79.28;99836.31;5062865;28;20025;-76
2023/01/15 02:10:28;;;;;;;5.28;1.00;;;;;;;6.06;79.31;99831.19;5064168;28;20384;-77
2023/01/15 02:13:06;;;;;;;5.95;1.33;;;;;;;6.05;79.91;99838.13;5059159;28;20037;-76
2023/01/15 02:15:37;;;;;;;2.65;0.98;;;;;;;6.05;79.50;99839.84;5061597;28;20075;-75
2023/01/15 02:18:14;;;;;;;3.60;0.80;;;;;;;6.04;79.79;99833.84;5057217;28;20024;-76
2023/01/15 02:20:48;;;;;;;6.20;0.80;;;;;;;6.03;79.34;99837.28;5060095;28;20033;-77
2023/01/15 02:23:52;;;;;;;4.75;0.68;;;;;;;6.03;79.78;99826.09;5063592;28;20029;-76
2023/01/15 02:26:39;;;;;;;6.05;0.80;;;;;;;6.02;79.56;99827.00;5060420;28;20037;-76
2023/01/15 02:29:11;;;;;;;5.68;0.80;;;;;;;6.01;79.17;99820.13;5068472;28;20017;-76
2023/01/15 02:31:39;;;;;;;4.28;0.85;;;;;;;5.99;79.54;99822.72;5053661;28;20078;-77
2023/01/15 02:34:14;;;;;;;4.28;0.70;;;;;;;5.99;79.13;99811.53;5055576;28;20067;-76
2023/01/15 02:36:45;;;;;;;5.00;0.80;;;;;;;5.97;79.49;99821.91;5067337;28;20017;-76
2023/01/15 02:39:14;;;;;;;4.93;0.90;;;;;;;5.96;79.13;99821.94;5069063;28;20098;-76
2023/01/15 02:41:45;;;;;;;7.05;0.95;;;;;;;5.93;79.43;99808.22;5071015;28;20021;-76
2023/01/15 02:44:15;;;;;;;3.80;0.90;;;;;;;5.89;79.33;99801.44;5071135;28;20077;-76
2023/01/15 02:46:42;;;;;;;3.47;0.65;;;;;;;5.89;79.16;99816.91;5068127;28;20052;-76
2023/01/15 02:49:11;;;;;;;6.30;0.85;;;;;;;5.88;79.25;99806.66;5051863;28;20109;-76
2023/01/15 02:51:44;;;;;;;5.57;1.00;;;;;;;5.87;78.90;99805.78;5058618;28;20032;-76
2023/01/15 02:54:14;;;;;;;3.47;0.70;;;;;;;5.85;78.92;99789.47;5068212;28;20040;-76
2023/01/15 02:56:41;;;;;;;7.53;0.98;;;;;;;5.84;78.93;99795.53;5062653;28;20036;-76
2023/01/15 02:59:14;;;;;;;5.88;0.85;;;;;;;5.81;79.67;99808.50;5066261;28;20389;-76
2023/01/15 03:01:49;;;;;;;4.95;0.88;;;;;;;5.83;79.03;99804.16;5064764;28;20157;-75
2023/01/15 03:04:29;;;;;;;2.65;0.70;;;;;;;5.80;78.85;99801.66;5064264;28;20032;-76
2023/01/15 03:06:59;;;;;;;6.63;0.95;;;;;;;5.82;78.65;99810.19;5062485;28;20053;-76
2023/01/15 03:09:27;;;;;;;6.28;0.85;;;;;;;5.80;78.72;99809.41;5057731;28;20029;-76
2023/01/15 03:12:05;;;;;;;5.93;0.90;;;;;;;5.81;78.96;99810.25;5056465;28;20094;-76
2023/01/15 03:14:47;;;;;;;2.67;0.75;;;;;;;5.79;78.76;99810.28;5058032;28;20471;-76
2023/01/15 03:17:22;;;;;;;5.95;0.70;;;;;;;5.80;78.65;99813.69;5059717;28;20047;-76
2023/01/15 03:20:16;;;;;;;5.07;0.80;;;;;;;5.81;79.34;99826.56;5062643;28;20036;-76
2023/01/15 03:22:48;;;;;;;7.78;0.90;;;;;;;5.82;78.56;99817.94;5057230;28;20062;-76
2023/01/15 03:25:26;;;;;;;5.75;0.80;;;;;;;5.80;78.83;99821.44;5058475;28;21714;-76
2023/01/15 03:27:55;;;;;;;3.30;1.20;;;;;;;5.78;77.98;99801.69;5065371;28;20028;-76
2023/01/15 03:30:21;;;;;;;5.70;0.88;;;;;;;5.77;78.38;99802.56;5049305;28;20101;-76
2023/01/15 03:32:47;;;;;;;4.28;0.73;;;;;;;5.78;78.06;99800.84;5068157;28;20124;-76
2023/01/15 03:35:46;;;;;;;8.32;1.25;;;;;;;5.77;78.70;99806.88;5059355;28;20100;-76
2023/01/15 03:38:13;;;;;;;4.88;1.13;;;;;;;5.76;78.15;99802.59;5067557;28;20167;-76
2023/01/15 03:40:48;;;;;;;4.05;0.80;;;;;;;5.74;77.79;99789.72;5063425;28;20036;-76
2023/01/15 03:46:04;;;;;;;4.85;1.00;;;;;;;5.74;77.71;99788.88;5071034;28;20035;-76
2023/01/15 03:48:43;;;;;;;6.22;0.80;;;;;;;5.72;78.58;99800.97;5061785;28;20048;-76
2023/01/15 03:51:16;;;;;;;5.32;0.75;;;;;;;5.71;77.97;99801.84;5068707;28;20099;-76
2023/01/15 03:53:49;;;;;;;6.28;1.00;;;;;;;5.72;77.55;99806.13;5067242;28;20031;-76
2023/01/15 03:56:29;;;;;;;6.35;0.90;;;;;;;5.68;78.00;99794.16;5070869;28;20047;-76
2023/01/15 03:59:17;;;;;;;6.95;1.00;;;;;;;5.68;77.76;99800.19;5071751;28;20050;-76
2023/01/15 04:01:45;;;;;;;5.25;0.93;;;;;;;5.68;77.22;99789.00;5069145;28;20086;-76
2023/01/15 04:04:13;;;;;;;8.07;1.33;;;;;;;5.69;77.00;99793.28;5071492;28;20510;-76
2023/01/15 04:06:40;;;;;;;4.25;0.70;;;;;;;5.68;77.36;99789.88;5066015;28;20029;-76
2023/01/15 04:09:08;;;;;;;4.85;0.90;;;;;;;5.66;76.87;99801.09;5071243;28;20040;-76
2023/01/15 04:11:34;;;;;;;5.20;0.63;;;;;;;5.65;76.82;99781.34;5071582;28;20070;-76
2023/01/15 04:13:59;;;;;;;5.13;0.85;;;;;;;5.65;76.73;99789.94;5070463;28;20024;-76
2023/01/15 04:16:27;;;;;;;5.40;1.00;;;;;;;5.62;76.98;99790.00;5061868;28;20033;-77
2023/01/15 04:18:53;;;;;;;6.97;1.30;;;;;;;5.58;76.61;99794.41;5062992;28;20052;-76
2023/01/15 04:21:18;;;;;;;4.43;0.85;;;;;;;5.58;76.94;99791.81;5070824;28;20055;-76
2023/01/15 04:23:44;;;;;;;6.95;1.10;;;;;;;5.58;76.60;99789.22;5068504;28;20016;-76
2023/01/15 04:26:10;;;;;;;4.97;0.90;;;;;;;5.56;76.71;99775.50;5064049;28;20032;-76
2023/01/15 04:28:35;;;;;;;5.53;1.00;;;;;;;5.56;76.43;99788.41;5067648;28;20020;-76
2023/01/15 04:31:01;;;;;;;6.68;0.90;;;;;;;5.54;76.66;99794.50;5071249;28;20491;-76
2023/01/15 04:33:26;;;;;;;8.13;0.98;;;;;;;5.53;76.27;99782.47;5071702;28;20032;-76
2023/01/15 04:35:51;;;;;;;4.93;0.95;;;;;;;5.49;76.68;99784.25;5069110;28;20031;-76
2023/01/15 04:38:16;;;;;;;7.45;1.45;;;;;;;5.48;76.80;99787.72;5069680;28;20383;-76
2023/01/15 04:46:10;;;;;;;7.03;1.00;;;;;;;5.45;76.30;99798.13;5070014;28;20082;-76
2023/01/15 04:48:38;;;;;;;7.65;1.00;;;;;;;5.42;76.66;99808.50;5066398;28;20025;-76
2023/01/15 04:51:04;;;;;;;5.47;0.80;;;;;;;5.43;76.56;99807.63;5064779;28;20085;-76
2023/01/15 04:53:30;;;;;;;4.78;1.00;;;;;;;5.45;76.73;99803.28;5067450;28;20538;-76
2023/01/15 04:56:02;;;;;;;5.22;0.85;;;;;;;5.45;76.69;99808.44;5072339;28;20025;-76
2023/01/15 04:58:28;;;;;;;5.80;0.80;;;;;;;5.41;76.60;99801.66;5069270;28;20025;-75
2023/01/15 05:00:53;;;;;;;4.45;0.90;;;;;;;5.43;77.04;99812.78;5068487;28;20033;-76
2023/01/15 05:03:19;;;;;;;5.95;0.65;;;;;;;5.45;76.80;99818.75;5067427;28;20028;-76
2023/01/15 05:05:44;;;;;;;3.95;0.70;;;;;;;5.41;76.97;99815.38;5062157;28;20101;-75
2023/01/15 05:08:09;;;;;;;6.57;0.93;;;;;;;5.43;77.11;99815.38;5068595;28;20503;-76
2023/01/15 05:10:34;;;;;;;7.95;1.02;;;;;;;5.42;77.25;99813.66;5073443;28;20020;-76
2023/01/15 05:13:00;;;;;;;6.75;0.95;;;;;;;5.39;77.35;99818.88;5065207;28;20984;-76
2023/01/15 05:15:25;;;;;;;4.47;0.75;;;;;;;5.39;76.61;99813.72;5037744;28;20033;-76
2023/01/15 05:17:50;;;;;;;3.97;0.80;;;;;;;5.37;77.27;99810.31;5064694;28;20403;-76
2023/01/15 05:20:16;;;;;;;6.75;0.90;;;;;;;5.36;77.63;99816.38;5070083;28;20025;-76
2023/01/15 05:22:41;;;;;;;7.63;1.35;;;;;;;5.37;76.98;99805.16;5062573;28;20414;-76
2023/01/15 05:25:06;;;;;;;9.50;1.30;;;;;;;5.36;77.21;99811.19;5061287;28;20020;-76
2023/01/15 05:27:32;;;;;;;6.25;0.77;;;;;;;5.37;77.05;99812.91;5062163;28;20020;-76
2023/01/15 05:29:57;;;;;;;5.30;1.13;;;;;;;5.36;77.38;99795.72;5068525;28;20045;-76
2023/01/15 05:32:22;;;;;;;8.20;1.00;;;;;;;5.41;76.82;99802.47;5066960;28;20024;-76
2023/01/15 05:34:47;;;;;;;7.20;0.90;;;;;;;5.40;76.89;99803.34;5062987;28;20021;-76
2023/01/15 05:37:13;;;;;;;4.18;0.90;;;;;;;5.39;77.36;99805.97;5059036;28;20063;-76
2023/01/15 05:39:38;;;;;;;5.18;0.93;;;;;;;5.38;76.81;99802.53;5062758;28;20024;-76
2023/01/15 05:42:04;;;;;;;5.72;0.90;;;;;;;5.38;76.91;99797.38;5069464;28;20020;-76
2023/01/15 05:44:29;;;;;;;5.53;1.08;;;;;;;5.37;76.86;99787.09;5059624;28;20541;-76
2023/01/15 05:47:05;;;;;;;5.88;0.90;;;;;;;5.35;77.15;99792.31;5065719;28;20055;-76
2023/01/15 05:49:30;;;;;;;3.15;0.70;;;;;;;5.36;76.89;99798.31;5069408;28;20025;-76
2023/01/15 05:51:57;;;;;;;4.53;0.85;;;;;;;5.36;76.58;99793.16;5062592;28;20074;-76
2023/01/15 05:54:25;;;;;;;5.47;0.65;;;;;;;5.35;76.95;99797.47;5073183;28;20025;-75
2023/01/15 05:56:51;;;;;;;8.68;0.88;;;;;;;5.32;76.84;99788.03;5055153;28;21977;-76
2023/01/15 05:59:20;;;;;;;5.55;0.80;;;;;;;5.32;77.17;99798.38;5058008;28;20076;-75
2023/01/15 06:01:46;;;;;;;7.25;1.08;;;;;;;5.31;76.83;99801.81;5073606;28;20024;-76
2023/01/15 06:04:16;;;;;;;4.22;0.75;;;;;;;5.30;77.41;99800.13;5067482;28;20086;-76
2023/01/15 06:06:42;;;;;;;5.30;0.80;;;;;;;5.27;77.24;99800.22;5073476;28;20123;-76
2023/01/15 06:09:07;;;;;;;5.47;0.85;;;;;;;5.28;77.39;99790.72;5072716;28;20112;-76
2023/01/15 06:11:33;;;;;;;4.22;0.82;;;;;;;5.27;77.67;99800.22;5067898;28;20116;-76
2023/01/15 06:13:58;;;;;;;5.03;1.10;;;;;;;5.28;77.92;99798.47;5047404;28;20028;-76
2023/01/15 06:16:24;;;;;;;8.25;1.08;;;;;;;5.28;78.16;99794.19;5068299;28;20139;-76
2023/01/15 06:18:50;;;;;;;6.40;0.90;;;;;;;5.31;78.34;99801.00;5053497;28;20417;-76
2023/01/15 06:21:15;;;;;;;10.15;1.20;;;;;;;5.35;78.21;99801.75;5064576;28;20464;-76
2023/01/15 06:23:42;;;;;;;8.10;1.13;;;;;;;5.37;78.61;99805.16;5073238;28;20368;-76
2023/01/15 06:26:11;;;;;;;5.05;1.10;;;;;;;5.40;78.06;99815.41;5069357;28;20021;-75
2023/01/15 06:28:37;;;;;;;5.07;1.10;;;;;;;5.40;78.23;99812.84;5067860;28;20039;-76
2023/01/15 06:31:07;;;;;;;8.02;1.58;;;;;;;5.40;78.35;99808.53;5063091;28;20032;-76
2023/01/15 06:33:33;;;;;;;3.47;0.98;;;;;;;5.40;78.22;99820.59;5056676;28;20028;-76
2023/01/15 06:36:03;;;;;;;7.43;1.20;;;;;;;5.38;78.60;99818.00;5064060;28;20024;-76
2023/01/15 06:38:28;;;;;;;5.57;1.10;;;;;;;5.36;78.50;99813.78;5072588;28;20357;-76
2023/01/15 06:40:53;;;;;;;5.35;1.00;;;;;;;5.37;78.34;99824.09;5062171;28;20036;-76
2023/01/15 06:48:46;;;;;;;5.50;1.25;;;;;;;5.26;78.73;99832.03;5065659;28;20074;-77
2023/01/15 06:51:14;;;;;;;3.83;0.95;;;;;;;5.22;78.82;99838.13;5066745;28;20040;-76
2023/01/15 06:53:39;;;;;;;4.57;1.00;;;;;;;5.20;78.65;99819.25;5072570;28;20472;-76
2023/01/15 06:56:05;;;;;;;8.07;1.33;;;;;;;5.18;78.59;99822.75;5056047;28;20029;-76
2023/01/15 06:58:30;;;;;;;3.60;0.73;;;;;;;5.15;78.59;99816.78;5055647;28;20503;-76
2023/01/15 07:00:55;;;;;;;6.07;0.77;;;;;;;5.14;78.76;99816.78;5063276;28;20024;-76
2023/01/15 07:03:22;;;;;;;4.22;0.90;;;;;;;5.10;78.20;99823.75;5057497;28;20047;-76
2023/01/15 07:05:48;;;;;;;5.50;0.90;;;;;;;5.06;78.32;99831.56;5059259;28;20166;-76
2023/01/15 07:08:13;;;;;;;2.85;0.80;;;;;;;5.05;77.75;99847.91;5065940;28;20255;-76
2023/01/15 07:10:40;;;;;;;2.90;0.73;;;;;;;5.03;78.35;99847.09;5057257;28;20033;-76
2023/01/15 07:13:06;;;;;;;9.00;0.88;;;;;;;5.02;77.94;99851.41;5040991;28;20033;-76
2023/01/15 07:15:31;;;;;;;6.10;0.70;;;;;;;5.00;77.89;99854.00;5064046;28;20028;-76
2023/01/15 07:17:57;;;;;;;5.97;0.80;;;;;;;4.97;77.84;99854.06;5059201;28;20484;-76
2023/01/15 07:20:23;;;;;;;4.57;0.82;;;;;;;4.97;77.63;99854.06;5067616;28;20032;-76
2023/01/15 07:22:49;;;;;;;4.00;0.80;;;;;;;4.97;77.84;99848.06;5060992;28;20029;-76
2023/01/15 07:25:15;;;;;;;5.97;0.60;;;;;;;4.92;77.96;99845.59;5068655;28;20028;-76
2023/01/15 07:27:40;;;;;;;4.65;1.00;;;;;;;4.97;78.10;99854.06;5056070;28;20060;-76
2023/01/15 07:30:06;;;;;;;6.60;0.90;;;;;;;4.95;78.15;99863.53;5060047;28;20465;-76
2023/01/15 07:32:31;;;;;;;4.68;0.82;;;;;;;4.97;77.84;99854.06;5057584;28;20027;-76
2023/01/15 07:34:57;;;;;;;6.53;0.93;;;;;;;4.98;77.62;99857.50;5053708;28;20029;-76
2023/01/15 07:37:22;;;;;;;3.93;0.73;;;;;;;4.95;77.93;99858.38;5064525;28;20036;-75
2023/01/15 07:39:47;;;;;;;6.60;0.80;;;;;;;4.98;77.89;99867.81;5065169;28;20037;-76
2023/01/15 07:50:24;;;;;;;6.97;0.75;;;;;;;5.02;77.16;99851.41;5052818;28;20063;-76
2023/01/15 07:52:50;;;;;;;5.72;0.80;;;;;;;5.03;76.47;99865.13;5040703;28;20040;-76
2023/01/15 07:55:15;;;;;;;5.95;0.85;;;;;;;5.03;76.04;99875.44;5070321;28;20056;-75
2023/01/15 07:57:41;;;;;;;3.20;0.80;;;;;;;5.00;75.98;99866.06;5071561;28;20035;-75
2023/01/15 08:00:10;;;;;;;4.00;0.80;;;;;;;5.04;76.04;99877.16;5071261;28;20033;-76
2023/01/15 08:02:35;;;;;;;4.80;0.80;;;;;;;5.05;75.79;99876.28;5051954;28;20087;-77
2023/01/15 08:05:00;;;;;;;3.05;0.63;;;;;;;5.04;75.78;99865.09;5068850;28;20471;-76
2023/01/15 08:07:26;;;;;;;8.38;1.00;;;;;;;5.03;75.74;99862.56;5071420;28;20044;-76
2023/01/15 08:09:51;;;;;;;5.45;0.70;;;;;;;4.99;75.56;99884.97;5068128;28;20086;-76
2023/01/15 08:15:20;;;;;;;5.63;0.75;;;;;;;4.92;75.58;99871.34;4961421;28;20074;-76
2023/01/15 08:17:47;;;;;;;3.53;0.80;;;;;;;4.87;75.97;99878.31;4958596;28;20059;-76
2023/01/15 08:20:24;;;;;;;5.45;0.90;;;;;;;4.90;76.00;99883.41;5001744;28;20044;-76
2023/01/15 08:22:49;;;;;;;2.70;0.70;;;;;;;4.85;75.60;99885.22;5070964;28;20130;-76
2023/01/15 08:25:18;;;;;;;3.47;1.05;;;;;;;4.83;75.58;99886.97;5051395;28;20617;-76
2023/01/15 08:27:43;;;;;;;3.97;0.90;;;;;;;4.81;75.38;99892.16;5052069;28;20039;-76
2023/01/15 08:30:20;;;;;;;3.00;1.10;;;;;;;4.78;75.36;99893.94;5067748;28;20029;-76
2023/01/15 08:32:46;;;;;;;4.80;0.80;;;;;;;4.83;75.26;99897.28;5061218;28;20027;-76
2023/01/15 08:35:12;;;;;;;4.43;0.75;;;;;;;4.79;75.35;99896.47;5065599;28;20033;-76
2023/01/15 08:37:38;;;;;;;4.00;0.97;;;;;;;4.77;75.51;99897.41;5064727;28;20421;-76
2023/01/15 08:40:04;;;;;;;5.13;0.90;;;;;;;4.77;75.67;99894.81;5058630;28;20037;-76
2023/01/15 08:42:29;;;;;;;5.75;0.90;;;;;;;4.76;75.79;99883.66;5062253;28;20373;-76
2023/01/15 08:44:55;;;;;;;2.75;0.65;;;;;;;4.80;75.32;99892.16;5067927;28;20028;-76
2023/01/15 08:47:20;;;;;;;3.67;0.63;;;;;;;4.79;75.24;99899.06;5066635;28;20043;-76
2023/01/15 08:49:47;;;;;;;3.63;0.70;;;;;;;4.76;75.37;99881.06;5064284;28;20036;-76
2023/01/15 08:52:12;;;;;;;5.83;0.70;;;;;;;4.76;75.48;99875.09;5055539;28;20036;-76
2023/01/15 08:54:37;;;;;;;5.03;0.97;;;;;;;4.75;75.27;99894.81;5063763;28;20028;-76
2023/01/15 08:57:03;;;;;;;3.93;0.57;;;;;;;4.74;75.17;99880.25;5057379;28;20025;-76
2023/01/15 08:59:28;;;;;;;3.72;0.60;;;;;;;4.75;75.38;99873.38;5062495;28;20032;-76
2023/01/15 09:01:53;;;;;;;4.40;0.77;;;;;;;4.74;75.22;99871.69;5069818;28;20127;-76
2023/01/15 09:04:20;;;;;;;7.27;0.90;;;;;;;4.74;75.83;99880.25;5047122;28;20678;-77
2023/01/15 09:06:47;;;;;;;4.73;0.60;;;;;;;4.74;75.54;99874.25;5057086;28;20074;-76
2023/01/15 09:09:13;;;;;;;4.30;1.00;;;;;;;4.74;75.64;99869.94;5056814;28;20043;-76
2023/01/15 09:11:40;;;;;;;4.53;0.55;;;;;;;4.74;75.25;99876.84;5054939;28;20435;-76
2023/01/15 09:14:10;;;;;;;3.17;0.60;;;;;;;4.79;75.47;99875.88;5056043;28;20032;-76
2023/01/15 09:16:36;;;;;;;6.50;0.90;;;;;;;4.79;75.46;99864.69;5058082;28;20052;-76
2023/01/15 09:19:01;;;;;;;5.85;0.90;;;;;;;4.78;76.12;99857.88;5064572;28;20107;-76
2023/01/15 09:21:27;;;;;;;2.80;0.70;;;;;;;4.82;75.65;99859.50;5066674;28;20804;-76
2023/01/15 09:23:52;;;;;;;3.00;0.60;;;;;;;4.84;75.88;99857.75;5074030;28;20031;-75
2023/01/15 09:26:31;;;;;;;3.05;0.50;;;;;;;4.89;75.94;99865.38;5074619;28;20028;-76
2023/01/15 09:28:58;;;;;;;4.67;1.10;;;;;;;4.90;75.55;99861.94;5078456;28;20035;-75
2023/01/15 09:31:23;;;;;;;5.57;0.82;;;;;;;4.95;75.32;99863.53;5071676;28;20116;-75
2023/01/15 09:33:49;;;;;;;7.53;0.90;;;;;;;4.99;75.01;99862.63;5054508;28;20036;-76
2023/01/15 09:36:28;;;;;;;4.13;0.63;;;;;;;5.07;75.18;99877.09;5071644;28;20032;-76
2023/01/15 09:38:55;;;;;;;6.40;0.80;;;;;;;5.16;74.79;99900.13;5077068;28;20039;-76
2023/01/15 09:44:18;;;;;;;5.13;1.00;;;;;;;5.31;74.47;99888.69;5073496;28;20051;-75
2023/01/15 09:47:15;;;;;;;4.43;0.75;;;;;;;5.34;74.25;99872.28;5073748;28;20024;-75
2023/01/15 09:50:23;;;;;;;5.75;0.93;;;;;;;5.30;74.77;99876.66;5061844;28;20064;-75
2023/01/15 09:52:48;;;;;;;6.45;0.70;;;;;;;5.31;74.55;99876.63;5072538;28;20036;-75
2023/01/15 09:55:17;;;;;;;5.03;0.70;;;;;;;5.32;73.65;99874.91;5077189;28;20089;-76
2023/01/15 09:57:45;;;;;;;3.92;0.75;;;;;;;5.27;74.33;99876.72;5074188;28;20047;-76
2023/01/15 10:00:20;;;;;;;5.15;1.00;;;;;;;5.20;74.30;99868.25;5075297;28;20056;-75
2023/01/15 10:03:00;;;;;;;7.17;1.13;;;;;;;5.24;74.23;99876.75;5075616;28;20020;-76
2023/01/15 10:05:34;;;;;;;4.70;0.80;;;;;;;5.23;74.13;99881.09;5074965;28;20145;-74
2023/01/15 10:08:12;;;;;;;4.80;0.80;;;;;;;5.33;74.09;99881.75;5075046;28;20052;-76
2023/01/15 10:10:44;;;;;;;8.52;1.35;;;;;;;5.38;74.01;99897.13;5071379;28;20115;-76
2023/01/15 10:13:55;;;;;;;5.45;0.80;;;;;;;5.50;73.80;99903.78;5072520;28;20035;-76
2023/01/15 10:16:24;;;;;;;6.03;0.77;;;;;;;5.58;73.30;99912.22;5011907;28;20038;-76
2023/01/15 10:18:50;;;;;;;5.93;0.80;;;;;;;5.58;73.14;99907.91;5013790;28;20041;-76
2023/01/15 10:21:23;;;;;;;9.13;1.00;;;;;;;5.62;72.71;99919.03;5043157;28;20051;-75
2023/01/15 10:23:51;;;;;;;6.00;0.80;;;;;;;5.68;72.20;99903.41;5072424;28;20039;-76
2023/01/15 10:26:31;;;;;;;4.72;0.80;;;;;;;5.65;72.27;99910.34;5073694;28;20822;-75
2023/01/15 10:29:23;;;;;;;4.50;0.80;;;;;;;5.66;72.70;99899.16;5073178;28;20035;-77
2023/01/15 10:31:56;;;;;;;5.85;1.30;;;;;;;5.68;71.53;99893.09;5072549;28;20029;-76
2023/01/15 10:34:35;;;;;;;6.22;0.88;;;;;;;5.77;70.80;99897.22;5074002;28;20051;-75
2023/01/15 10:37:09;;;;;;;7.22;1.05;;;;;;;5.72;71.24;99899.03;5069678;28;20066;-75
2023/01/15 10:40:00;;;;;;;7.22;1.00;;;;;;;5.78;71.04;99901.50;5071289;28;20075;-76
2023/01/15 10:42:35;;;;;;;9.45;1.13;;;;;;;5.73;72.25;99900.72;5073425;28;20463;-76
2023/01/15 10:45:14;;;;;;;7.32;1.15;;;;;;;5.78;71.38;99888.59;5076344;28;20028;-76
2023/01/15 10:47:43;;;;;;;7.07;1.13;;;;;;;5.77;71.38;99910.13;5061285;28;20406;-77
2023/01/15 10:50:21;;;;;;;4.03;0.70;;;;;;;5.86;71.65;99909.06;5072896;28;20039;-76
2023/01/15 10:53:15;;;;;;;6.55;1.00;;;;;;;5.96;72.03;99907.16;5073044;28;20495;-76
2023/01/15 10:55:44;;;;;;;7.65;1.13;;;;;;;6.05;71.58;99902.66;5072854;28;20055;-76
2023/01/15 10:58:18;;;;;;;5.95;0.80;;;;;;;6.06;71.33;99899.16;5072640;28;20036;-75
2023/01/15 11:00:51;;;;;;;7.15;0.93;;;;;;;6.14;71.36;99898.16;5072871;28;20054;-76
2023/01/15 11:03:21;;;;;;;4.10;0.70;;;;;;;6.17;71.20;99892.94;5071752;28;20056;-76
2023/01/15 11:05:46;;;;;;;5.22;0.90;;;;;;;6.18;70.55;99898.06;5073142;28;20492;-76
2023/01/15 11:08:29;;;;;;;5.47;0.90;;;;;;;6.29;70.96;99915.06;5073214;28;20042;-77
2023/01/15 11:11:01;;;;;;;5.22;0.85;;;;;;;6.28;70.60;99901.28;5071160;28;20069;-75
2023/01/15 11:19:39;;;;;;;4.97;0.88;;;;;;;6.30;70.80;99909.84;5072983;28;20113;-76
2023/01/15 11:22:12;;;;;;;3.40;0.70;;;;;;;6.43;69.21;99904.38;5069350;28;20559;-75
2023/01/15 11:24:49;;;;;;;4.25;0.80;;;;;;;6.44;69.20;99898.31;5074059;28;20041;-76
2023/01/15 11:27:25;;;;;;;4.57;0.70;;;;;;;6.44;68.98;99903.50;5061503;28;20028;-76
2023/01/15 11:29:54;;;;;;;6.13;0.75;;;;;;;6.44;69.00;99909.53;5069395;28;20034;-76
2023/01/15 11:32:36;;;;;;;3.80;0.80;;;;;;;6.42;69.26;99905.25;5072629;28;20032;-75
2023/01/15 11:35:16;;;;;;;4.90;0.90;;;;;;;6.42;69.65;99911.28;5072188;28;20037;-76
2023/01/15 11:37:42;;;;;;;5.00;0.60;;;;;;;6.38;69.85;99899.31;5071346;28;20081;-75
2023/01/15 11:40:24;;;;;;;2.80;1.02;;;;;;;6.38;69.64;99909.66;5064814;28;21358;-77
2023/01/15 11:51:14;;;;;;;5.60;0.77;;;;;;;6.41;69.90;99904.44;5062973;28;20056;-75
2023/01/15 11:53:53;;;;;;;2.13;0.57;;;;;;;6.38;70.53;99910.53;5070825;28;20673;-75
2023/01/15 11:56:25;;;;;;;2.60;0.68;;;;;;;6.40;69.63;99922.56;5071742;28;20039;-75
2023/01/15 11:59:01;;;;;;;2.40;0.57;;;;;;;6.37;69.42;99928.63;5069766;28;20024;-74
2023/01/15 12:01:36;;;;;;;5.90;0.90;;;;;;;6.30;69.98;99906.41;5067910;28;20569;-75
2023/01/15 12:04:21;;;;;;;2.47;0.50;;;;;;;6.36;70.37;99898.50;5064862;28;20097;-76
2023/01/15 12:06:47;;;;;;;4.60;1.30;;;;;;;6.34;70.08;99910.59;5067944;28;20123;-76
2023/01/15 12:09:45;;;;;;;3.78;0.68;;;;;;;6.36;70.53;99909.72;5066048;28;20115;-77
2023/01/15 12:12:44;;;;;;;3.97;0.55;;;;;;;6.21;71.62;99908.31;5069070;28;20031;-76
2023/01/15 12:15:55;;;;;;;2.58;0.88;;;;;;;6.15;72.27;99900.69;5064112;28;20108;-77
2023/01/15 12:18:37;;;;;;;6.53;0.80;;;;;;;6.10;72.80;99899.09;5068324;28;20044;-76
2023/01/15 12:21:47;;;;;;;3.55;0.85;;;;;;;6.05;73.21;99909.53;5066829;28;20041;-75
2023/01/15 12:24:39;;;;;;;1.70;0.65;;;;;;;6.05;72.76;99896.63;5033376;28;20044;-76
2023/01/15 12:27:23;;;;;;;;;;;;;;;6.08;72.86;99894.00;5066088;28;20032;-75
2023/01/15 12:29:57;;;;;;;5.75;1.38;;;;;;;6.03;72.44;99888.06;5067464;28;20348;-76
2023/01/15 12:32:38;;;;;;;2.88;0.60;;;;;;;6.05;72.45;99901.81;5065231;28;20029;-77
2023/01/15 12:35:06;;;;;;;;;;;;;;;6.05;71.89;99889.75;5067204;28;20200;-76
2023/01/15 12:37:45;;;;;;;2.30;0.60;;;;;;;6.03;71.71;99888.06;5061821;28;19961;-76
2023/01/15 12:40:13;;;;;;;5.38;1.10;;;;;;;6.04;71.21;99894.94;5062196;28;20093;-77